sensor_id;sensor_type;location;lat;lon;timestamp;pressure;altitude;pressure_sealevel;temperature;humidity
53932;BME280;39844;52.496;13.482;2023-04-20T00:01:20;101877.97;;;6.87;98.09
53932;BME280;39844;52.496;13.482;2023-04-20T00:03:46;101871.81;;;6.85;97.61
53932;BME280;39844;52.496;13.482;2023-04-20T00:06:11;101871.81;;;6.85;97.45
53932;BME280;39844;52.496;13.482;2023-04-20T00:08:36;101879.66;;;6.85;98.22
53932;BME280;39844;52.496;13.482;2023-04-20T00:11:02;101877.06;;;6.85;98.19
53932;BME280;39844;52.496;13.482;2023-04-20T00:13:27;101874.38;;;6.84;97.44
53932;BME280;39844;52.496;13.482;2023-04-20T00:15:52;101868.22;;;6.82;97.71
53932;BME280;39844;52.496;13.482;2023-04-20T00:18:17;101868.28;;;6.83;97.85
53932;BME280;39844;52.496;13.482;2023-04-20T00:20:43;101869.16;;;6.84;98.07
53932;BME280;39844;52.496;13.482;2023-04-20T00:23:08;101872.63;;;6.83;97.79
53932;BME280;39844;52.496;13.482;2023-04-20T00:25:33;101870.94;;;6.85;98.18
53932;BME280;39844;52.496;13.482;2023-04-20T00:27:59;101868.28;;;6.83;97.88
53932;BME280;39844;52.496;13.482;2023-04-20T00:30:24;101869.16;;;6.84;98.05
53932;BME280;39844;52.496;13.482;2023-04-20T00:32:49;101870.91;;;6.83;97.88
53932;BME280;39844;52.496;13.482;2023-04-20T00:35:15;101862.19;;;6.83;97.71
53932;BME280;39844;52.496;13.482;2023-04-20T00:37:41;101861.28;;;6.82;97.74
53932;BME280;39844;52.496;13.482;2023-04-20T00:40:07;101862.97;;;6.80;97.87
53932;BME280;39844;52.496;13.482;2023-04-20T00:42:32;101867.31;;;6.80;97.81
53932;BME280;39844;52.496;13.482;2023-04-20T00:44:58;101866.41;;;6.79;98.52
53932;BME280;39844;52.496;13.482;2023-04-20T00:47:24;101863.88;;;6.81;98.54
53932;BME280;39844;52.496;13.482;2023-04-20T00:49:50;101864.72;;;6.81;98.58
53932;BME280;39844;52.496;13.482;2023-04-20T00:52:16;101860.38;;;6.80;98.44
53932;BME280;39844;52.496;13.482;2023-04-20T00:54:41;101853.44;;;6.81;98.78
53932;BME280;39844;52.496;13.482;2023-04-20T00:57:07;101856.03;;;6.81;98.70
53932;BME280;39844;52.496;13.482;2023-04-20T00:59:32;101856.97;;;6.83;99.10
53932;BME280;39844;52.496;13.482;2023-04-20T01:01:57;101854.28;;;6.81;98.51
53932;BME280;39844;52.496;13.482;2023-04-20T01:04:23;101849.06;;;6.81;99.14
53932;BME280;39844;52.496;13.482;2023-04-20T01:06:48;101850.84;;;6.82;99.11
53932;BME280;39844;52.496;13.482;2023-04-20T01:09:13;101850.84;;;6.82;99.60
53932;BME280;39844;52.496;13.482;2023-04-20T01:11:39;101855.19;;;6.82;99.66
53932;BME280;39844;52.496;13.482;2023-04-20T01:14:04;101851.66;;;6.80;99.17
53932;BME280;39844;52.496;13.482;2023-04-20T01:16:30;101848.06;;;6.76;99.34
53932;BME280;39844;52.496;13.482;2023-04-20T01:18:55;101854.03;;;6.72;98.94
53932;BME280;39844;52.496;13.482;2023-04-20T01:21:21;101855.63;;;6.67;99.38
53932;BME280;39844;52.496;13.482;2023-04-20T01:23:46;101852.91;;;6.64;99.68
53932;BME280;39844;52.496;13.482;2023-04-20T01:26:14;101858.09;;;6.63;100.00
53932;BME280;39844;52.496;13.482;2023-04-20T01:28:39;101853.72;;;6.62;100.00
53932;BME280;39844;52.496;13.482;2023-04-20T01:31:06;101857.22;;;6.62;100.00
53932;BME280;39844;52.496;13.482;2023-04-20T01:33:32;101865.06;;;6.64;100.00
53932;BME280;39844;52.496;13.482;2023-04-20T01:35:58;101857.31;;;6.65;100.00
53932;BME280;39844;52.496;13.482;2023-04-20T01:38:23;101851.22;;;6.66;100.00
53932;BME280;39844;52.496;13.482;2023-04-20T01:40:49;101845.16;;;6.66;100.00
53932;BME280;39844;52.496;13.482;2023-04-20T01:43:16;101838.16;;;6.65;100.00
53932;BME280;39844;52.496;13.482;2023-04-20T01:45:41;101837.22;;;6.63;100.00
53932;BME280;39844;52.496;13.482;2023-04-20T01:48:06;101840.56;;;6.59;100.00
53932;BME280;39844;52.496;13.482;2023-04-20T01:50:32;101833.53;;;6.56;100.00
53932;BME280;39844;52.496;13.482;2023-04-20T01:52:57;101838.72;;;6.55;100.00
53932;BME280;39844;52.496;13.482;2023-04-20T01:55:22;101840.50;;;6.56;100.00
53932;BME280;39844;52.496;13.482;2023-04-20T01:57:48;101840.50;;;6.56;100.00
53932;BME280;39844;52.496;13.482;2023-04-20T02:00:15;101836.16;;;6.56;100.00
53932;BME280;39844;52.496;13.482;2023-04-20T02:02:40;101837.03;;;6.57;100.00
53932;BME280;39844;52.496;13.482;2023-04-20T02:05:06;101845.78;;;6.59;100.00
53932;BME280;39844;52.496;13.482;2023-04-20T02:07:32;101844.06;;;6.59;100.00
53932;BME280;39844;52.496;13.482;2023-04-20T02:09:57;101840.63;;;6.60;100.00
53932;BME280;39844;52.496;13.482;2023-04-20T02:12:22;101845.88;;;6.62;100.00
53932;BME280;39844;52.496;13.482;2023-04-20T02:14:47;101841.56;;;6.62;100.00
53932;BME280;39844;52.496;13.482;2023-04-20T02:17:13;101845.97;;;6.65;100.00
53932;BME280;39844;52.496;13.482;2023-04-20T02:19:38;101847.75;;;6.66;100.00
53932;BME280;39844;52.496;13.482;2023-04-20T02:22:04;101857.31;;;6.65;100.00
53932;BME280;39844;52.496;13.482;2023-04-20T02:24:29;101840.00;;;6.69;100.00
53932;BME280;39844;52.496;13.482;2023-04-20T02:26:55;101851.31;;;6.69;100.00
53932;BME280;39844;52.496;13.482;2023-04-20T02:29:20;101846.09;;;6.68;100.00
53932;BME280;39844;52.496;13.482;2023-04-20T02:31:45;101847.78;;;6.67;100.00
53932;BME280;39844;52.496;13.482;2023-04-20T02:34:11;101853.91;;;6.68;100.00
53932;BME280;39844;52.496;13.482;2023-04-20T02:36:36;101842.63;;;6.69;100.00
53932;BME280;39844;52.496;13.482;2023-04-20T02:39:01;101848.78;;;6.71;100.00
53932;BME280;39844;52.496;13.482;2023-04-20T02:41:26;101847.94;;;6.72;100.00
53932;BME280;39844;52.496;13.482;2023-04-20T02:43:52;101848.81;;;6.72;100.00
53932;BME280;39844;52.496;13.482;2023-04-20T02:46:17;101842.78;;;6.73;100.00
53932;BME280;39844;52.496;13.482;2023-04-20T02:48:42;101841.91;;;6.74;100.00
53932;BME280;39844;52.496;13.482;2023-04-20T02:51:08;101849.75;;;6.74;100.00
53932;BME280;39844;52.496;13.482;2023-04-20T02:53:33;101848.03;;;6.75;100.00
53932;BME280;39844;52.496;13.482;2023-04-20T02:55:59;101845.41;;;6.75;100.00
53932;BME280;39844;52.496;13.482;2023-04-20T02:58:24;101853.28;;;6.76;100.00
53932;BME280;39844;52.496;13.482;2023-04-20T03:00:50;101858.56;;;6.78;100.00
53932;BME280;39844;52.496;13.482;2023-04-20T03:03:15;101849.88;;;6.79;100.00
53932;BME280;39844;52.496;13.482;2023-04-20T03:05:40;101843.84;;;6.81;100.00
53932;BME280;39844;52.496;13.482;2023-04-20T03:08:05;101845.59;;;6.81;100.00
53932;BME280;39844;52.496;13.482;2023-04-20T03:10:31;101854.28;;;6.81;100.00
53932;BME280;39844;52.496;13.482;2023-04-20T03:12:56;101852.56;;;6.82;100.00
53932;BME280;39844;52.496;13.482;2023-04-20T03:15:21;101838.63;;;6.81;100.00
53932;BME280;39844;52.496;13.482;2023-04-20T03:17:47;101841.31;;;6.83;100.00
53932;BME280;39844;52.496;13.482;2023-04-20T03:20:12;101850.84;;;6.82;100.00
53932;BME280;39844;52.496;13.482;2023-04-20T03:22:37;101850.88;;;6.84;100.00
53932;BME280;39844;52.496;13.482;2023-04-20T03:25:03;101850.06;;;6.85;100.00
53932;BME280;39844;52.496;13.482;2023-04-20T03:27:28;101855.28;;;6.85;100.00
53932;BME280;39844;52.496;13.482;2023-04-20T03:29:53;101856.16;;;6.85;100.00
53932;BME280;39844;52.496;13.482;2023-04-20T03:32:19;101864.03;;;6.87;100.00
53932;BME280;39844;52.496;13.482;2023-04-20T03:34:44;101856.16;;;6.85;100.00
53932;BME280;39844;52.496;13.482;2023-04-20T03:37:09;101859.69;;;6.86;100.00
53932;BME280;39844;52.496;13.482;2023-04-20T03:39:35;101865.81;;;6.88;100.00
53932;BME280;39844;52.496;13.482;2023-04-20T03:42:00;101861.41;;;6.87;100.00
53932;BME280;39844;52.496;13.482;2023-04-20T03:44:25;101860.59;;;6.88;100.00
53932;BME280;39844;52.496;13.482;2023-04-20T03:46:50;101852.69;;;6.86;100.00
53932;BME280;39844;52.496;13.482;2023-04-20T03:49:16;101847.47;;;6.86;100.00
53932;BME280;39844;52.496;13.482;2023-04-20T03:51:41;101858.03;;;6.89;100.00
53932;BME280;39844;52.496;13.482;2023-04-20T03:54:07;101854.56;;;6.90;100.00
53932;BME280;39844;52.496;13.482;2023-04-20T03:56:32;101861.50;;;6.90;100.00
53932;BME280;39844;52.496;13.482;2023-04-20T03:58:57;101853.59;;;6.87;100.00
53932;BME280;39844;52.496;13.482;2023-04-20T04:01:23;101857.91;;;6.86;100.00
53932;BME280;39844;52.496;13.482;2023-04-20T04:03:48;101857.06;;;6.86;100.00
53932;BME280;39844;52.496;13.482;2023-04-20T04:06:13;101865.81;;;6.88;100.00
53932;BME280;39844;52.496;13.482;2023-04-20T04:08:38;101864.91;;;6.87;100.00
53932;BME280;39844;52.496;13.482;2023-04-20T04:11:04;101860.59;;;6.88;100.00
53932;BME280;39844;52.496;13.482;2023-04-20T04:13:30;101866.75;;;6.90;100.00
53932;BME280;39844;52.496;13.482;2023-04-20T04:15:55;101865.84;;;6.89;100.00
53932;BME280;39844;52.496;13.482;2023-04-20T04:18:21;101867.63;;;6.90;100.00
53932;BME280;39844;52.496;13.482;2023-04-20T04:20:46;101878.09;;;6.92;100.00
53932;BME280;39844;52.496;13.482;2023-04-20T04:23:11;101875.47;;;6.90;100.00
53932;BME280;39844;52.496;13.482;2023-04-20T04:25:37;101873.69;;;6.89;100.00
53932;BME280;39844;52.496;13.482;2023-04-20T04:28:03;101876.25;;;6.88;100.00
53932;BME280;39844;52.496;13.482;2023-04-20T04:30:28;101883.25;;;6.89;100.00
53932;BME280;39844;52.496;13.482;2023-04-20T04:32:53;101877.16;;;6.88;100.00
53932;BME280;39844;52.496;13.482;2023-04-20T04:35:19;101885.09;;;6.93;100.00
53932;BME280;39844;52.496;13.482;2023-04-20T04:37:44;101889.50;;;6.94;100.00
53932;BME280;39844;52.496;13.482;2023-04-20T04:40:09;101883.31;;;6.92;100.00
53932;BME280;39844;52.496;13.482;2023-04-20T04:42:35;101879.88;;;6.93;100.00
53932;BME280;39844;52.496;13.482;2023-04-20T04:45:01;101883.38;;;6.93;100.00
53932;BME280;39844;52.496;13.482;2023-04-20T04:47:27;101891.16;;;6.92;100.00
53932;BME280;39844;52.496;13.482;2023-04-20T04:49:52;101900.75;;;6.93;100.00
53932;BME280;39844;52.496;13.482;2023-04-20T04:52:18;101903.41;;;6.94;100.00
53932;BME280;39844;52.496;13.482;2023-04-20T04:54:43;101899.06;;;6.95;100.00
53932;BME280;39844;52.496;13.482;2023-04-20T04:57:08;101899.19;;;6.98;100.00
53932;BME280;39844;52.496;13.482;2023-04-20T04:59:33;101902.72;;;7.00;100.00
53932;BME280;39844;52.496;13.482;2023-04-20T05:01:59;101895.78;;;7.02;100.00
53932;BME280;39844;52.496;13.482;2023-04-20T05:04:24;101899.31;;;7.03;100.00
53932;BME280;39844;52.496;13.482;2023-04-20T05:06:49;101888.03;;;7.04;100.00
53932;BME280;39844;52.496;13.482;2023-04-20T05:09:14;101888.06;;;7.05;100.00
53932;BME280;39844;52.496;13.482;2023-04-20T05:11:40;101895.06;;;7.06;100.00
53932;BME280;39844;52.496;13.482;2023-04-20T05:14:05;101903.78;;;7.07;100.00
53932;BME280;39844;52.496;13.482;2023-04-20T05:16:30;101901.13;;;7.05;100.00
53932;BME280;39844;52.496;13.482;2023-04-20T05:18:56;101911.63;;;7.07;100.00
53932;BME280;39844;52.496;13.482;2023-04-20T05:21:21;101906.41;;;7.07;100.00
53932;BME280;39844;52.496;13.482;2023-04-20T05:23:46;101902.84;;;7.05;100.00
53932;BME280;39844;52.496;13.482;2023-04-20T05:26:12;101900.22;;;7.05;100.00
53932;BME280;39844;52.496;13.482;2023-04-20T05:28:37;101905.53;;;7.08;100.00
53932;BME280;39844;52.496;13.482;2023-04-20T05:31:02;101904.66;;;7.07;100.00
53932;BME280;39844;52.496;13.482;2023-04-20T05:33:28;101903.00;;;7.09;100.00
53932;BME280;39844;52.496;13.482;2023-04-20T05:35:56;101903.06;;;7.12;100.00
53932;BME280;39844;52.496;13.482;2023-04-20T05:38:22;101900.63;;;7.18;100.00
53932;BME280;39844;52.496;13.482;2023-04-20T05:40:48;101906.78;;;7.20;100.00
53932;BME280;39844;52.496;13.482;2023-04-20T05:43:13;101905.09;;;7.22;100.00
53932;BME280;39844;52.496;13.482;2023-04-20T05:45:38;101925.16;;;7.23;100.00
53932;BME280;39844;52.496;13.482;2023-04-20T05:48:04;101937.31;;;7.23;100.00
53932;BME280;39844;52.496;13.482;2023-04-20T05:50:29;101922.63;;;7.26;100.00
53932;BME280;39844;52.496;13.482;2023-04-20T05:52:54;101927.06;;;7.29;100.00
53932;BME280;39844;52.496;13.482;2023-04-20T05:55:20;101925.34;;;7.29;100.00
53932;BME280;39844;52.496;13.482;2023-04-20T05:57:45;101921.84;;;7.29;100.00
53932;BME280;39844;52.496;13.482;2023-04-20T06:00:12;101920.97;;;7.30;99.72
53932;BME280;39844;52.496;13.482;2023-04-20T06:02:38;101914.13;;;7.33;100.00
53932;BME280;39844;52.496;13.482;2023-04-20T06:05:04;101917.75;;;7.38;100.00
53932;BME280;39844;52.496;13.482;2023-04-20T06:07:29;101924.91;;;7.45;100.00
53932;BME280;39844;52.496;13.482;2023-04-20T06:09:55;101928.53;;;7.50;100.00
53932;BME280;39844;52.496;13.482;2023-04-20T06:12:20;101923.47;;;7.56;99.82
53932;BME280;39844;52.496;13.482;2023-04-20T06:14:45;101915.72;;;7.59;99.33
53932;BME280;39844;52.496;13.482;2023-04-20T06:17:11;101936.75;;;7.64;99.13
53932;BME280;39844;52.496;13.482;2023-04-20T06:19:36;101934.25;;;7.69;99.18
53932;BME280;39844;52.496;13.482;2023-04-20T06:22:08;101942.22;;;7.73;98.54
53932;BME280;39844;52.496;13.482;2023-04-20T06:24:34;101933.53;;;7.74;97.85
53932;BME280;39844;52.496;13.482;2023-04-20T06:26:59;101949.19;;;7.73;97.42
53932;BME280;39844;52.496;13.482;2023-04-20T06:29:24;101942.22;;;7.73;98.17
53932;BME280;39844;52.496;13.482;2023-04-20T06:31:50;101943.97;;;7.73;97.81
53932;BME280;39844;52.496;13.482;2023-04-20T06:34:15;101954.53;;;7.77;98.63
53932;BME280;39844;52.496;13.482;2023-04-20T06:36:41;101945.94;;;7.81;98.12
53932;BME280;39844;52.496;13.482;2023-04-20T06:39:07;101943.38;;;7.83;97.54
53932;BME280;39844;52.496;13.482;2023-04-20T06:41:32;101936.38;;;7.82;96.73
53932;BME280;39844;52.496;13.482;2023-04-20T06:43:57;101946.00;;;7.84;96.54
53932;BME280;39844;52.496;13.482;2023-04-20T06:46:22;101944.38;;;7.88;96.85
53932;BME280;39844;52.496;13.482;2023-04-20T06:48:48;101943.69;;;7.95;97.26
53932;BME280;39844;52.496;13.482;2023-04-20T06:51:13;101945.66;;;8.03;97.00
53932;BME280;39844;52.496;13.482;2023-04-20T06:53:38;101949.31;;;8.10;96.26
53932;BME280;39844;52.496;13.482;2023-04-20T06:56:04;101943.31;;;8.14;95.26
53932;BME280;39844;52.496;13.482;2023-04-20T06:58:29;101933.81;;;8.17;94.16
53932;BME280;39844;52.496;13.482;2023-04-20T07:00:54;101935.78;;;8.26;94.31
53932;BME280;39844;52.496;13.482;2023-04-20T07:03:20;101936.19;;;8.41;95.20
53932;BME280;39844;52.496;13.482;2023-04-20T07:05:45;101922.53;;;8.54;94.76
53932;BME280;39844;52.496;13.482;2023-04-20T07:08:10;101920.91;;;8.59;92.67
53932;BME280;39844;52.496;13.482;2023-04-20T07:10:36;101937.56;;;8.63;91.78
53932;BME280;39844;52.496;13.482;2023-04-20T07:13:01;101945.75;;;8.76;91.80
53932;BME280;39844;52.496;13.482;2023-04-20T07:15:26;101954.69;;;8.86;91.33
53932;BME280;39844;52.496;13.482;2023-04-20T07:17:51;101949.72;;;8.97;91.16
53932;BME280;39844;52.496;13.482;2023-04-20T07:20:17;101949.78;;;9.00;88.61
53932;BME280;39844;52.496;13.482;2023-04-20T07:22:42;101960.38;;;9.06;89.59
53932;BME280;39844;52.496;13.482;2023-04-20T07:25:08;101958.66;;;9.08;89.12
53932;BME280;39844;52.496;13.482;2023-04-20T07:27:35;101953.56;;;9.14;88.44
53932;BME280;39844;52.496;13.482;2023-04-20T07:30:00;101956.22;;;9.15;87.29
53932;BME280;39844;52.496;13.482;2023-04-20T07:32:26;101951.94;;;9.19;88.31
53932;BME280;39844;52.496;13.482;2023-04-20T07:34:51;101959.94;;;9.26;87.44
53932;BME280;39844;52.496;13.482;2023-04-20T07:37:16;101960.81;;;9.25;85.39
53932;BME280;39844;52.496;13.482;2023-04-20T07:39:42;101964.31;;;9.26;85.69
53932;BME280;39844;52.496;13.482;2023-04-20T07:42:07;101959.06;;;9.26;85.25
53932;BME280;39844;52.496;13.482;2023-04-20T07:44:32;101966.16;;;9.30;84.76
53932;BME280;39844;52.496;13.482;2023-04-20T07:46:57;101964.50;;;9.35;85.62
53932;BME280;39844;52.496;13.482;2023-04-20T07:49:26;101964.53;;;9.36;83.82
53932;BME280;39844;52.496;13.482;2023-04-20T07:51:51;101969.84;;;9.41;83.86
53932;BME280;39844;52.496;13.482;2023-04-20T07:54:16;101976.00;;;9.41;83.74
53932;BME280;39844;52.496;13.482;2023-04-20T07:56:41;101978.66;;;9.43;83.58
53932;BME280;39844;52.496;13.482;2023-04-20T07:59:07;101978.69;;;9.46;83.39
53932;BME280;39844;52.496;13.482;2023-04-20T08:01:32;101976.97;;;9.46;82.59
53932;BME280;39844;52.496;13.482;2023-04-20T08:03:58;101973.59;;;9.52;82.96
53932;BME280;39844;52.496;13.482;2023-04-20T08:06:23;101983.34;;;9.59;82.50
53932;BME280;39844;52.496;13.482;2023-04-20T08:08:48;101976.50;;;9.66;82.66
53932;BME280;39844;52.496;13.482;2023-04-20T08:11:14;101969.69;;;9.75;82.16
53932;BME280;39844;52.496;13.482;2023-04-20T08:13:40;101971.78;;;9.93;84.02
53932;BME280;39844;52.496;13.482;2023-04-20T08:16:05;101965.09;;;10.10;81.52
53932;BME280;39844;52.496;13.482;2023-04-20T08:18:30;101971.22;;;10.10;80.05
53932;BME280;39844;52.496;13.482;2023-04-20T08:20:56;101969.63;;;10.17;79.67
53932;BME280;39844;52.496;13.482;2023-04-20T08:23:21;101970.72;;;10.30;79.08
53932;BME280;39844;52.496;13.482;2023-04-20T08:25:46;101970.06;;;10.41;79.31
53932;BME280;39844;52.496;13.482;2023-04-20T08:30:39;101984.53;;;10.18;76.76
53932;BME280;39844;52.496;13.482;2023-04-20T08:33:04;101985.16;;;10.06;77.09
53932;BME280;39844;52.496;13.482;2023-04-20T08:35:30;101985.09;;;10.03;78.40
53932;BME280;39844;52.496;13.482;2023-04-20T08:37:55;101985.03;;;10.00;78.47
53932;BME280;39844;52.496;13.482;2023-04-20T08:40:20;101987.59;;;9.96;78.25
53932;BME280;39844;52.496;13.482;2023-04-20T08:42:46;101988.34;;;9.90;79.05
53932;BME280;39844;52.496;13.482;2023-04-20T08:48:16;101998.59;;;9.78;78.30
53932;BME280;39844;52.496;13.482;2023-04-20T08:50:41;101990.44;;;9.63;79.01
53932;BME280;39844;52.496;13.482;2023-04-20T08:53:07;101995.47;;;9.52;80.63
53932;BME280;39844;52.496;13.482;2023-04-20T08:55:32;101990.91;;;9.44;81.47
53932;BME280;39844;52.496;13.482;2023-04-20T08:57:57;101992.53;;;9.39;82.28
53932;BME280;39844;52.496;13.482;2023-04-20T09:00:22;101998.56;;;9.35;83.89
53932;BME280;39844;52.496;13.482;2023-04-20T09:02:53;101989.69;;;9.28;84.23
53932;BME280;39844;52.496;13.482;2023-04-20T09:05:29;101991.28;;;9.20;85.04
53932;BME280;39844;52.496;13.482;2023-04-20T09:07:59;101983.22;;;9.13;86.27
53932;BME280;39844;52.496;13.482;2023-04-20T09:10:26;101988.41;;;9.10;88.24
53932;BME280;39844;52.496;13.482;2023-04-20T09:12:51;101979.53;;;9.03;88.68
53932;BME280;39844;52.496;13.482;2023-04-20T09:15:27;101984.66;;;8.99;89.49
53932;BME280;39844;52.496;13.482;2023-04-20T09:17:53;101991.59;;;8.97;90.46
53932;BME280;39844;52.496;13.482;2023-04-20T09:20:31;101989.91;;;9.00;92.93
53932;BME280;39844;52.496;13.482;2023-04-20T09:22:57;101988.13;;;8.98;93.08
53932;BME280;39844;52.496;13.482;2023-04-20T09:25:23;101992.50;;;8.97;92.81
53932;BME280;39844;52.496;13.482;2023-04-20T09:27:58;101987.25;;;8.97;94.17
53932;BME280;39844;52.496;13.482;2023-04-20T09:30:24;101982.03;;;8.99;93.26
53932;BME280;39844;52.496;13.482;2023-04-20T09:33:03;101976.91;;;9.03;94.28
53932;BME280;39844;52.496;13.482;2023-04-20T09:35:28;101983.13;;;9.08;92.88
53932;BME280;39844;52.496;13.482;2023-04-20T09:37:53;101978.13;;;9.19;93.60
53932;BME280;39844;52.496;13.482;2023-04-20T09:40:19;101985.50;;;9.36;95.87
53932;BME280;39844;52.496;13.482;2023-04-20T09:42:46;101982.31;;;9.51;94.19
53932;BME280;39844;52.496;13.482;2023-04-20T09:45:12;101979.88;;;9.60;92.31
53932;BME280;39844;52.496;13.482;2023-04-20T09:47:38;101971.41;;;9.73;91.96
53932;BME280;39844;52.496;13.482;2023-04-20T09:50:03;101977.69;;;9.81;90.73
53932;BME280;39844;52.496;13.482;2023-04-20T09:52:29;101972.75;;;9.99;91.78
53932;BME280;39844;52.496;13.482;2023-04-20T09:54:55;101973.91;;;10.12;90.41
53932;BME280;39844;52.496;13.482;2023-04-20T09:57:22;101961.94;;;10.26;90.16
53932;BME280;39844;52.496;13.482;2023-04-20T09:59:50;101970.75;;;10.31;87.29
53932;BME280;39844;52.496;13.482;2023-04-20T10:02:16;101969.16;;;10.41;86.65
53932;BME280;39844;52.496;13.482;2023-04-20T10:04:54;101963.16;;;10.48;86.50
53932;BME280;39844;52.496;13.482;2023-04-20T10:07:27;101972.22;;;10.65;85.68
53932;BME280;39844;52.496;13.482;2023-04-20T10:10:06;101959.31;;;10.80;86.25
53932;BME280;39844;52.496;13.482;2023-04-20T10:12:32;101954.19;;;10.89;82.98
53932;BME280;39844;52.496;13.482;2023-04-20T10:14:57;101951.75;;;11.04;82.63
53932;BME280;39844;52.496;13.482;2023-04-20T10:17:30;101961.47;;;11.08;79.66
53932;BME280;39844;52.496;13.482;2023-04-20T10:19:55;101946.66;;;11.15;81.41
53932;BME280;39844;52.496;13.482;2023-04-20T10:22:31;101948.41;;;11.14;79.18
53932;BME280;39844;52.496;13.482;2023-04-20T10:24:56;101946.84;;;11.31;83.26
53932;BME280;39844;52.496;13.482;2023-04-20T10:27:23;101940.84;;;11.41;80.59
53932;BME280;39844;52.496;13.482;2023-04-20T10:29:48;101945.25;;;11.42;77.36
53932;BME280;39844;52.496;13.482;2023-04-20T10:32:40;101940.16;;;11.56;80.41
53932;BME280;39844;52.496;13.482;2023-04-20T10:35:09;101938.47;;;11.63;78.01
53932;BME280;39844;52.496;13.482;2023-04-20T10:37:35;101935.19;;;11.79;78.55
53932;BME280;39844;52.496;13.482;2023-04-20T10:40:11;101930.13;;;12.00;76.95
53932;BME280;39844;52.496;13.482;2023-04-20T10:42:43;101932.09;;;12.24;76.70
53932;BME280;39844;52.496;13.482;2023-04-20T10:45:09;101928.09;;;12.73;77.96
53932;BME280;39844;52.496;13.482;2023-04-20T10:47:34;101930.00;;;12.98;72.63
53932;BME280;39844;52.496;13.482;2023-04-20T10:50:06;101913.50;;;13.30;70.98
53932;BME280;39844;52.496;13.482;2023-04-20T10:52:36;101919.78;;;13.70;69.69
53932;BME280;39844;52.496;13.482;2023-04-20T10:55:02;101913.69;;;14.02;67.42
53932;BME280;39844;52.496;13.482;2023-04-20T10:57:28;101916.34;;;14.26;66.18
53932;BME280;39844;52.496;13.482;2023-04-20T10:59:53;101909.31;;;14.44;65.40
53932;BME280;39844;52.496;13.482;2023-04-20T11:02:19;101916.31;;;14.17;63.73
53932;BME280;39844;52.496;13.482;2023-04-20T11:04:44;101908.41;;;14.02;65.56
53932;BME280;39844;52.496;13.482;2023-04-20T11:07:10;101897.81;;;13.77;65.28
53932;BME280;39844;52.496;13.482;2023-04-20T11:09:35;101901.31;;;13.64;66.88
53932;BME280;39844;52.496;13.482;2023-04-20T11:12:03;101900.44;;;13.62;67.81
53932;BME280;39844;52.496;13.482;2023-04-20T11:14:30;101897.72;;;13.50;66.81
53932;BME280;39844;52.496;13.482;2023-04-20T11:16:55;101890.69;;;13.46;67.72
53932;BME280;39844;52.496;13.482;2023-04-20T11:19:32;101903.91;;;13.49;69.55
53932;BME280;39844;52.496;13.482;2023-04-20T11:22:01;101902.16;;;13.59;68.37
53932;BME280;39844;52.496;13.482;2023-04-20T11:24:29;101903.94;;;13.70;68.24
53932;BME280;39844;52.496;13.482;2023-04-20T11:26:55;101903.06;;;13.71;67.74
53932;BME280;39844;52.496;13.482;2023-04-20T11:29:34;101900.44;;;13.67;67.37
53932;BME280;39844;52.496;13.482;2023-04-20T11:32:02;101900.41;;;13.61;67.87
53932;BME280;39844;52.496;13.482;2023-04-20T11:34:28;101896.00;;;13.61;67.50
53932;BME280;39844;52.496;13.482;2023-04-20T11:36:53;101898.66;;;13.64;68.08
53932;BME280;39844;52.496;13.482;2023-04-20T11:39:23;101910.09;;;13.75;69.11
53932;BME280;39844;52.496;13.482;2023-04-20T11:41:48;101902.19;;;13.71;67.25
53932;BME280;39844;52.496;13.482;2023-04-20T11:44:14;101886.41;;;14.10;70.67
53932;BME280;39844;52.496;13.482;2023-04-20T11:46:39;101882.84;;;14.73;68.33
53932;BME280;39844;52.496;13.482;2023-04-20T11:49:04;101879.09;;;15.35;64.90
53932;BME280;39844;52.496;13.482;2023-04-20T11:51:30;101872.81;;;15.60;63.58
53932;BME280;39844;52.496;13.482;2023-04-20T11:53:55;101871.94;;;15.56;63.26
53932;BME280;39844;52.496;13.482;2023-04-20T11:56:20;101871.16;;;15.45;62.05
53932;BME280;39844;52.496;13.482;2023-04-20T11:58:46;101872.88;;;15.42;62.03
53932;BME280;39844;52.496;13.482;2023-04-20T12:01:11;101871.25;;;15.15;62.33
53932;BME280;39844;52.496;13.482;2023-04-20T12:03:36;101868.66;;;15.04;63.08
53932;BME280;39844;52.496;13.482;2023-04-20T12:06:01;101866.94;;;14.85;63.52
53932;BME280;39844;52.496;13.482;2023-04-20T12:08:27;101862.63;;;14.62;64.90
53932;BME280;39844;52.496;13.482;2023-04-20T12:10:52;101860.88;;;14.48;65.61
53932;BME280;39844;52.496;13.482;2023-04-20T12:13:17;101862.66;;;14.46;65.80
53932;BME280;39844;52.496;13.482;2023-04-20T12:15:43;101853.78;;;14.67;65.64
53932;BME280;39844;52.496;13.482;2023-04-20T12:18:08;101858.16;;;14.86;65.93
53932;BME280;39844;52.496;13.482;2023-04-20T12:20:33;101851.03;;;15.03;64.01
53932;BME280;39844;52.496;13.482;2023-04-20T12:22:59;101854.41;;;15.31;63.20
53932;BME280;39844;52.496;13.482;2023-04-20T12:25:24;101857.09;;;15.27;62.64
53932;BME280;39844;52.496;13.482;2023-04-20T12:27:49;101868.63;;;15.10;63.82
53932;BME280;39844;52.496;13.482;2023-04-20T12:30:14;101858.94;;;15.06;65.33
53932;BME280;39844;52.496;13.482;2023-04-20T12:32:40;101846.41;;;15.51;63.93
53932;BME280;39844;52.496;13.482;2023-04-20T12:35:05;101842.63;;;15.88;63.26
53932;BME280;39844;52.496;13.482;2023-04-20T12:37:31;101835.84;;;16.51;62.52
53932;BME280;39844;52.496;13.482;2023-04-20T12:39:56;101839.56;;;17.11;60.52
53932;BME280;39844;52.496;13.482;2023-04-20T12:42:21;101827.47;;;17.57;59.27